Nearby METAR Reports

 

KOXC - Oxford/Waterbury, Connecticut, USA
Distance from station: SE 8mi, 12km
Updated: Sun, 25-Jan-2015 8:50am EST
Mostly cloudy
Mostly cloudy
 Wind from W
Wind: W 7 mph , 11 km/h
Temperature: 34°F , 1°C
Wind Chill: 28°F , -2°C
Dew Point: 23°F , -5°C
Humidity: 65%
Barometer: 29.62 inHg , 1003 hPa
Clouds: Mostly cloudy
Visibility: 10 miles , 16 km
Cloud details: Partly cloudy 3300 ft
Mostly cloudy 4500 ft
2015/01/25 13:50 KOXC 251350Z 27006KT 10SM SCT033 BKN045 01/M05 A2962
KDXR - Danbury, Connecticut, USA
Distance from station: SW 19mi, 30km
Updated: Sun, 25-Jan-2015 8:53am EST
Mostly cloudy
Mostly cloudy
 Wind from WSW
Wind: WSW 7 mph , 11 km/h
Temperature: 36°F , 2°C
Wind Chill: 30°F , -1°C
Dew Point: 25°F , -4°C
Humidity: 65%
Barometer: 29.65 inHg , 1004.1 hPa
Clouds: Mostly cloudy
Visibility: 10 miles , 16 km
Cloud details: Partly cloudy 4700 ft
Mostly cloudy 6000 ft
2015/01/25 13:53 KDXR 251353Z 24006KT 10SM SCT047 BKN060 02/M04 A2965 RMK AO2 SLP043 T00171044
 
KMMK - Meriden, Connecticut, USA
Distance from station: E 20mi, 33km
Updated: Sun, 25-Jan-2015 8:53am EST
Clear
Clear
 Wind from SSW
Wind: SSW 6 mph , 9 km/h
Temperature: 34°F , 1°C
Wind Chill: 29°F , -2°C
Dew Point: 27°F , -3°C
Humidity: 75%
Barometer: 29.64 inHg , 1003.7 hPa
Clouds: Clear
Visibility: 10 miles , 16 km
2015/01/25 13:53 KMMK 251353Z AUTO 21005KT 10SM CLR 01/M03 A2964 RMK AO2 SLP039 T00111033 TSNO
KBDR - Bridgeport, Connecticut, USA
Distance from station: S 27mi, 44km
Updated: Sun, 25-Jan-2015 8:52am EST
Few Clouds
Few Clouds
 Wind from WSW
Wind: WSW 16 mph , 26 km/h
Temperature: 37°F , 3°C
Wind Chill: 28°F , -2°C
Dew Point: 30°F , -1°C
Humidity: 75%
Barometer: 29.66 inHg , 1004.4 hPa
Clouds: Few Clouds
Visibility: 10 miles , 16 km
Cloud details: Few Clouds 6000 ft
2015/01/25 13:52 KBDR 251352Z 24014KT 10SM FEW060 03/M01 A2966 RMK AO2 SLP044 T00281011
 
KHVN - New Haven/Tweed, Connecticut, USA
Distance from station: SE 27mi, 44km
Updated: Sun, 25-Jan-2015 8:53am EST
Mostly cloudy
Mostly cloudy
 Wind from WSW
Wind: WSW 15 mph , 24 km/h, Gust: 23 mph , 37 km/h
Temperature: 36°F , 2°C
Wind Chill: 27°F , -3°C
Dew Point: 28°F , -2°C
Humidity: 75%
Barometer: 29.65 inHg , 1004.1 hPa
Clouds: Mostly cloudy
Visibility: 10 miles , 16 km
Cloud details: Mostly cloudy 6000 ft
Mostly cloudy 15000 ft
2015/01/25 13:53 KHVN 251353Z 24013G20KT 10SM BKN060 BKN150 02/M02 A2965 RMK AO2 SLP041 T00221017
KHFD - Hartford/Brainar, Connecticut, USA
Distance from station: ENE 32mi, 52km
Updated: Sun, 25-Jan-2015 8:53am EST
Partly cloudy
Partly cloudy
 Wind from SW
Wind: SW 10 mph , 17 km/h
Temperature: 34°F , 1°C
Wind Chill: 26°F , -3°C
Dew Point: 27°F , -3°C
Humidity: 75%
Barometer: 29.63 inHg , 1003.4 hPa
Clouds: Partly cloudy
Visibility: 10 miles , 16 km
Cloud details: Partly cloudy 6000 ft
2015/01/25 13:53 KHFD 251353Z 22009KT 10SM SCT060 01/M03 A2963 RMK AO2 SLP035 T00111033
 
KPOU - Poughkeepsie, New York, USA
Distance from station: W 35mi, 56km
Updated: Sun, 25-Jan-2015 8:53am EST
Mostly cloudy
Mostly cloudy
 Wind from W
Wind: W 17 mph , 28 km/h, Gust: 28 mph , 44 km/h
Temperature: 37°F , 3°C
Wind Chill: 27°F , -3°C
Dew Point: 19°F , -7°C
Humidity: 48%
Barometer: 29.65 inHg , 1004.1 hPa
Clouds: Mostly cloudy
Visibility: 10 miles , 16 km
Cloud details: Partly cloudy 5000 ft
Mostly cloudy 6000 ft
2015/01/25 13:53 KPOU 251353Z 27015G24KT 10SM SCT050 BKN060 03/M07 A2965 RMK AO2 SLP041 T00281067
KBDL - Windsor Locks, Connecticut, USA
Distance from station: NE 38mi, 62km
Updated: Sun, 25-Jan-2015 8:51am EST
Mostly cloudy
Mostly cloudy
 Wind from WSW
Wind: WSW 8 mph , 13 km/h
Temperature: 34°F , 1°C
Wind Chill: 27°F , -3°C
Dew Point: 27°F , -3°C
Humidity: 75%
Barometer: 29.61 inHg , 1002.7 hPa
Clouds: Mostly cloudy
Visibility: 10 miles , 16 km
Cloud details: Few Clouds 3500 ft
Mostly cloudy 4800 ft
Mostly cloudy 6500 ft
2015/01/25 13:51 KBDL 251351Z 24007KT 10SM FEW035 BKN048 BKN065 01/M03 A2961 RMK AO2 SLP029 T00111033 $
 
KSNC - Chester, Connecticut, USA
Distance from station: ESE 39mi, 63km
Updated: Sun, 25-Jan-2015 8:55am EST
Few Clouds
Few Clouds
 Wind from W
Wind: W 10 mph , 17 km/h, Gust: 20 mph , 31 km/h
Temperature: 34°F , 1°C
Wind Chill: 26°F , -3°C
Dew Point: 28°F , -2°C
Humidity: 81%
Barometer: 29.63 inHg , 1003.4 hPa
Clouds: Few Clouds
Visibility: 10 miles , 16 km
Cloud details: Few Clouds 5000 ft
2015/01/25 13:55 KSNC 251355Z AUTO 26009G17KT 10SM FEW050 01/M02 A2963 RMK AO2
KHPN - White Plains, New York, USA
Distance from station: SW 42mi, 67km
Updated: Sun, 25-Jan-2015 8:56am EST
Mostly cloudy
Mostly cloudy
 Wind from varies
Wind: varies 7 mph , 11 km/h
Temperature: 36°F , 2°C
Wind Chill: 30°F , -1°C
Dew Point: 27°F , -3°C
Humidity: 70%
Barometer: 29.66 inHg , 1004.4 hPa
Clouds: Mostly cloudy
Visibility: 10 miles , 16 km
Cloud details: Mostly cloudy 5500 ft
2015/01/25 13:56 KHPN 251356Z VRB06KT 10SM BKN055 02/M03 A2966 RMK AO2 SLP050 T00221033 $
 
KSWF - Newburgh/Stewart, New York, USA
Distance from station: W 45mi, 72km
Updated: Sun, 25-Jan-2015 8:45am EST
Mostly cloudy
Mostly cloudy
 Wind from NW
Wind: NW 23 mph , 37 km/h, Gust: 35 mph , 56 km/h
Temperature: 36°F , 2°C
Wind Chill: 24°F , -4°C
Dew Point: 25°F , -4°C
Humidity: 65%
Barometer: 29.67 inHg , 1004.7 hPa
Clouds: Mostly cloudy
Visibility: 20 miles , 32 km
Cloud details: Mostly cloudy 4000 ft
2015/01/25 13:45 KSWF 251345Z 31020G30KT 20SM BKN040 02/M04 A2967
KBAF - Westfield, Massachusetts, USA
Distance from station: NNE 50mi, 80km
Updated: Sun, 25-Jan-2015 8:53am EST
Mostly cloudy
Mostly cloudy
 Wind from W
Wind: W 14 mph , 22 km/h, Gust: 21 mph , 33 km/h
Temperature: 36°F , 2°C
Wind Chill: 27°F , -3°C
Dew Point: 18°F , -8°C
Humidity: 48%
Barometer: 29.60 inHg , 1002.4 hPa
Clouds: Mostly cloudy
Visibility: 10 miles , 16 km
Cloud details: Mostly cloudy 4900 ft
2015/01/25 13:53 KBAF 251353Z 28012G18KT 10SM BKN049 02/M08 A2960 RMK AO2 WSHFT 1309 SNB00E10 SLP031 P0000 T00171078